Time;durP1;ratioP1;P1;durP2;ratioP2;P2;SDS_P1;SDS_P2;PMS_P1;PMS_P2;Temp;Humidity;BMP_temperature;BMP_pressure;BME280_temperature;BME280_humidity;BME280_pressure;Samples;Min_cycle;Max_cycle;Signal;HPM_P1;HPM_P2
2023/01/17 00:02:54;;;;;;;;;28.00;27.00;;;;;8.22;60.01;96143.09;6246557;28;96320;-62
2023/01/17 00:12:46;;;;;;;;;28.00;25.00;;;;;8.16;59.34;96128.09;6246373;28;96798;-62
2023/01/17 00:15:49;;;;;;;;;27.00;25.00;;;;;8.17;59.28;96145.78;6228338;28;96685;-62
2023/01/17 01:34:46;;;;;;;;;9.00;9.00;;;;;8.17;55.28;96121.63;6246173;28;96395;-64
2023/01/17 01:37:50;;;;;;;;;7.00;6.80;;;;;8.27;54.96;96121.59;6238155;27;98948;-63
2023/01/17 01:40:55;;;;;;;;;7.25;7.25;;;;;8.36;54.47;96116.50;6244487;28;96484;-64
2023/01/17 01:43:59;;;;;;;;;7.50;6.50;;;;;8.33;53.50;96106.31;6227153;28;96220;-63
2023/01/17 01:47:02;;;;;;;;;8.00;5.60;;;;;8.36;54.11;96101.19;6225168;28;97402;-63
2023/01/17 01:50:12;;;;;;;;;7.50;6.50;;;;;8.43;53.70;96095.53;6244297;28;96335;-64
2023/01/17 01:53:18;;;;;;;;;9.00;8.00;;;;;8.40;53.19;96096.09;6226523;28;96995;-64
2023/01/17 01:56:23;;;;;;;;;6.20;6.00;;;;;8.39;53.32;96087.25;6244509;28;96221;-63
2023/01/17 01:59:29;;;;;;;;;8.00;8.00;;;;;8.48;53.18;96096.31;6244912;28;96552;-63
2023/01/17 02:02:34;;;;;;;;;8.60;7.60;;;;;8.56;52.97;96079.63;6247287;27;96675;-64
2023/01/17 02:05:41;;;;;;;;;7.60;6.80;;;;;8.70;52.76;96082.50;6250467;28;96289;-63
2023/01/17 02:08:44;;;;;;;;;5.40;5.00;;;;;8.79;52.65;96086.22;6248947;28;96658;-65
2023/01/17 02:11:49;;;;;;;;;7.50;7.00;;;;;8.83;51.99;96078.41;6231034;28;96325;-63
2023/01/17 02:14:52;;;;;;;;;6.40;6.40;;;;;8.77;52.28;96068.75;6257311;27;97134;-63
2023/01/17 02:18:08;;;;;;;;;6.20;6.00;;;;;8.91;51.39;96093.91;6248782;28;96435;-63
2023/01/17 02:21:22;;;;;;;;;6.00;5.00;;;;;8.92;51.61;96087.47;6248688;28;96349;-64
2023/01/17 02:24:52;;;;;;;;;8.00;7.00;;;;;9.03;51.34;96094.38;6254697;27;96540;-63
2023/01/17 02:28:15;;;;;;;;;5.50;5.50;;;;;9.00;51.42;96089.53;6250728;27;96663;-63
2023/01/17 02:31:26;;;;;;;;;8.00;6.00;;;;;9.10;51.15;96082.22;6249679;28;96334;-62
2023/01/17 02:34:40;;;;;;;;;6.00;6.00;;;;;9.10;50.96;96084.91;6250640;28;96238;-64
2023/01/17 02:37:54;;;;;;;;;7.00;6.80;;;;;9.03;50.82;96070.19;6250166;28;96304;-63
2023/01/17 02:41:04;;;;;;;;;8.00;7.00;;;;;9.21;50.59;96091.00;6250317;28;96822;-61
2023/01/17 02:44:09;;;;;;;;;4.40;4.40;;;;;9.17;50.49;96099.91;6250769;27;96240;-63
2023/01/17 02:47:23;;;;;;;;;7.50;7.00;;;;;9.17;50.79;96097.22;6249651;28;96309;-63
2023/01/17 02:50:35;;;;;;;;;5.00;5.00;;;;;9.23;50.69;96101.50;6251441;28;96279;-62
2023/01/17 02:53:53;;;;;;;;;7.00;7.00;;;;;9.24;50.55;96093.13;6250906;27;96514;-62
2023/01/17 02:57:10;;;;;;;;;6.40;5.60;;;;;9.11;50.26;96083.84;6235988;28;97170;-64
2023/01/17 03:00:22;;;;;;;;;6.40;6.40;;;;;9.23;50.24;96096.94;6236409;27;96339;-62
2023/01/17 03:03:33;;;;;;;;;7.75;7.00;;;;;9.21;50.35;96099.06;6250530;28;96166;-62
2023/01/17 03:06:41;;;;;;;;;9.00;8.00;;;;;9.22;50.46;96103.38;6248406;28;96395;-62
2023/01/17 03:09:48;;;;;;;;;8.00;7.00;;;;;9.23;50.36;96105.00;6230279;28;96292;-62
2023/01/17 03:12:57;;;;;;;;;6.00;5.80;;;;;9.25;50.22;96108.19;6237025;27;96783;-62
2023/01/17 03:16:01;;;;;;;;;7.00;7.00;;;;;9.22;50.12;96106.06;6240657;27;96762;-62
2023/01/17 03:19:08;;;;;;;;;4.80;4.80;;;;;9.21;50.22;96120.56;6267801;27;96077;-64
2023/01/17 03:22:11;;;;;;;;;7.00;6.00;;;;;9.23;50.20;96128.38;6228535;28;96726;-64
2023/01/17 03:25:16;;;;;;;;;5.60;5.00;;;;;9.23;50.30;96131.06;6247712;27;96741;-63
2023/01/17 03:28:19;;;;;;;;;5.00;5.00;;;;;9.19;50.23;96133.47;6261756;27;96256;-62
2023/01/17 03:31:22;;;;;;;;;6.00;5.00;;;;;9.13;50.36;96140.81;6249553;28;96196;-62
2023/01/17 03:34:27;;;;;;;;;5.50;5.50;;;;;9.08;50.34;96140.03;6248943;28;96258;-62
2023/01/17 03:37:30;;;;;;;;;5.00;5.00;;;;;9.06;50.36;96136.81;6249371;28;96364;-62
2023/01/17 03:40:34;;;;;;;;;6.00;5.00;;;;;9.04;50.40;96137.06;6253211;27;96213;-63
2023/01/17 03:43:37;;;;;;;;;6.00;6.00;;;;;8.93;50.60;96146.31;6249536;27;97999;-62
2023/01/17 03:46:40;;;;;;;;;7.00;7.00;;;;;8.82;50.96;96150.13;6248715;28;96295;-62
2023/01/17 03:49:45;;;;;;;;;6.60;6.60;;;;;8.72;51.04;96160.09;6251905;27;96208;-64
2023/01/17 03:52:48;;;;;;;;;6.20;6.20;;;;;8.62;51.39;96155.59;6248449;28;96200;-62
2023/01/17 03:55:52;;;;;;;;;8.25;8.00;;;;;8.51;51.54;96164.75;6252339;27;96289;-62
2023/01/17 03:58:57;;;;;;;;;6.00;5.00;;;;;8.41;51.79;96156.72;6245675;28;96354;-62
2023/01/17 04:02:01;;;;;;;;;5.40;5.40;;;;;8.30;52.02;96156.00;6246977;27;96881;-62
2023/01/17 04:05:06;;;;;;;;;6.60;6.00;;;;;8.22;52.31;96165.34;6245402;28;96304;-63
2023/01/17 04:08:09;;;;;;;;;7.00;7.00;;;;;8.18;52.29;96166.97;6227241;28;96432;-63
2023/01/17 04:11:12;;;;;;;;;6.00;6.00;;;;;8.16;52.25;96166.44;6243963;28;96178;-62
2023/01/17 04:14:16;;;;;;;;;4.00;4.00;;;;;8.16;51.92;96157.63;6259012;27;96239;-62
2023/01/17 04:17:20;;;;;;;;;5.60;5.60;;;;;8.12;52.11;96169.94;6248199;27;96303;-62
2023/01/17 04:20:31;;;;;;;;;6.00;6.00;;;;;8.10;52.10;96164.06;6243958;27;96215;-61
2023/01/17 04:23:35;;;;;;;;;7.00;6.00;;;;;8.11;52.07;96166.44;6208127;28;96582;-63
2023/01/17 04:26:38;;;;;;;;;7.00;6.00;;;;;8.16;52.03;96165.66;6227753;28;96517;-63
2023/01/17 04:29:42;;;;;;;;;6.00;5.00;;;;;8.17;51.81;96157.31;6226742;28;96267;-66
2023/01/17 04:32:48;;;;;;;;;5.40;5.00;;;;;8.20;51.82;96158.66;6219954;28;96589;-62
2023/01/17 04:35:54;;;;;;;;;6.00;6.00;;;;;8.09;51.75;96125.69;6252163;27;96199;-62
2023/01/17 04:38:57;;;;;;;;;7.60;7.00;;;;;8.24;51.77;96149.00;6243227;28;96212;-63
2023/01/17 04:42:01;;;;;;;;;5.00;5.00;;;;;8.19;51.73;96151.69;6243252;27;96971;-62
2023/01/17 04:45:06;;;;;;;;;6.00;5.00;;;;;8.13;51.90;96153.56;6235878;28;96380;-65
2023/01/17 04:48:11;;;;;;;;;6.00;6.00;;;;;8.06;52.21;96150.38;6245750;27;96375;-64
2023/01/17 04:51:16;;;;;;;;;4.60;4.60;;;;;8.05;52.21;96151.47;6245558;27;96222;-61
2023/01/17 04:54:19;;;;;;;;;7.60;7.60;;;;;8.10;52.23;96156.81;6242367;27;96245;-62
2023/01/17 04:57:23;;;;;;;;;4.00;4.00;;;;;8.20;51.92;96166.72;6231667;27;97047;-62
2023/01/17 05:00:27;;;;;;;;;6.60;5.00;;;;;8.31;51.56;96162.94;6242377;28;96223;-62
2023/01/17 05:03:31;;;;;;;;;5.00;5.00;;;;;8.41;51.55;96159.41;6241762;28;96363;-62
2023/01/17 05:06:35;;;;;;;;;5.00;4.00;;;;;8.47;51.24;96161.00;6242494;27;96311;-64
2023/01/17 05:09:39;;;;;;;;;5.00;5.00;;;;;8.55;51.22;96171.19;6241739;27;96179;-64
2023/01/17 05:12:42;;;;;;;;;6.00;6.00;;;;;8.64;51.20;96161.50;6238879;27;96255;-63
2023/01/17 05:15:46;;;;;;;;;6.00;6.00;;;;;8.66;51.59;96167.38;6240223;27;96915;-61
2023/01/17 05:18:52;;;;;;;;;4.60;4.00;;;;;8.69;50.85;96166.84;6217613;28;98272;-61
2023/01/17 05:22:02;;;;;;;;;4.00;4.00;;;;;8.64;51.59;96156.94;6240619;28;96191;-61
2023/01/17 05:25:07;;;;;;;;;3.25;3.25;;;;;8.59;51.54;96153.47;6247654;27;96635;-63
2023/01/17 05:28:11;;;;;;;;;5.00;5.00;;;;;8.57;51.60;96158.28;6242606;27;96454;-62
2023/01/17 05:31:15;;;;;;;;;7.00;5.00;;;;;8.51;51.88;96154.81;6241228;27;96378;-63
2023/01/17 05:34:18;;;;;;;;;4.00;4.00;;;;;8.47;52.24;96161.81;6234374;27;96187;-62
2023/01/17 05:37:23;;;;;;;;;4.00;4.00;;;;;8.42;52.74;96161.03;6242692;27;96283;-62
2023/01/17 05:40:29;;;;;;;;;7.00;5.60;;;;;8.36;52.82;96162.13;6210111;28;96779;-62
2023/01/17 05:43:33;;;;;;;;;6.25;6.25;;;;;8.29;53.16;96162.41;6240318;28;96591;-62
2023/01/17 05:46:36;;;;;;;;;5.20;5.00;;;;;8.27;53.43;96145.75;6244139;28;96452;-62
2023/01/17 05:49:39;;;;;;;;;8.00;7.00;;;;;8.24;53.65;96136.38;6243212;28;96302;-62
2023/01/17 05:52:49;;;;;;;;;7.00;7.00;;;;;8.24;53.70;96128.34;6249649;27;96342;-62
2023/01/17 05:55:53;;;;;;;;;6.00;6.00;;;;;8.27;53.37;96141.19;6250474;27;96328;-62
2023/01/17 05:58:57;;;;;;;;;7.00;6.80;;;;;7.53;53.27;96047.25;6233831;28;97001;-65
2023/01/17 06:02:00;;;;;;;;;7.75;6.00;;;;;8.10;53.56;96170.22;6253303;27;96023;-62
2023/01/17 06:05:04;;;;;;;;;6.00;5.60;;;;;8.12;53.86;96169.94;6246658;27;96286;-63
2023/01/17 06:08:10;;;;;;;;;5.00;5.00;;;;;8.13;53.92;96175.03;6237824;28;96405;-64
2023/01/17 06:11:13;;;;;;;;;7.80;6.00;;;;;8.18;53.69;96168.84;6243542;28;96526;-63
2023/01/17 06:14:16;;;;;;;;;5.60;5.60;;;;;8.25;53.32;96169.38;6257426;27;97054;-64
2023/01/17 06:17:20;;;;;;;;;4.00;4.00;;;;;8.35;52.99;96163.22;6240203;28;96399;-62
2023/01/17 06:20:24;;;;;;;;;7.00;6.00;;;;;8.45;52.77;96168.56;6238550;27;97062;-65
2023/01/17 06:23:28;;;;;;;;;8.00;6.00;;;;;8.48;52.96;96165.31;6245916;27;96562;-63
2023/01/17 06:26:32;;;;;;;;;7.75;7.25;;;;;8.46;53.34;96154.03;6227176;28;98595;-64
2023/01/17 06:29:35;;;;;;;;;7.50;7.00;;;;;8.42;53.11;96156.47;6240969;27;96500;-62
2023/01/17 06:32:38;;;;;;;;;7.00;7.00;;;;;8.47;52.62;96155.63;6240811;28;96758;-62
2023/01/17 06:35:47;;;;;;;;;8.00;8.00;;;;;8.55;52.53;96158.56;6240777;28;96215;-63
2023/01/17 06:38:52;;;;;;;;;8.20;8.00;;;;;8.58;52.65;96165.28;6244159;28;96219;-65
2023/01/17 06:41:55;;;;;;;;;7.40;7.40;;;;;8.59;52.40;96170.38;6243831;28;96246;-64
2023/01/17 06:44:59;;;;;;;;;8.00;6.00;;;;;8.64;52.24;96166.88;6243548;28;96317;-63
2023/01/17 06:48:04;;;;;;;;;9.00;9.00;;;;;8.61;52.02;96153.97;6241670;27;96131;-63
2023/01/17 06:51:07;;;;;;;;;7.00;6.75;;;;;8.80;51.81;96163.00;6239368;28;97407;-62
2023/01/17 06:54:12;;;;;;;;;7.00;6.00;;;;;8.90;51.56;96162.16;6233463;27;96264;-64
2023/01/17 06:57:15;;;;;;;;;8.00;7.00;;;;;8.99;51.47;96163.97;6232577;28;97324;-63
2023/01/17 07:00:19;;;;;;;;;6.00;5.00;;;;;9.05;51.29;96159.38;6227365;28;96269;-62
2023/01/17 07:03:24;;;;;;;;;6.00;6.00;;;;;9.13;50.52;96165.00;6228515;28;96411;-63
2023/01/17 07:06:28;;;;;;;;;9.40;8.00;;;;;9.19;51.14;96167.66;6235696;28;96693;-63
2023/01/17 07:09:33;;;;;;;;;6.00;6.00;;;;;9.23;51.40;96174.06;6220183;27;97201;-63
2023/01/17 07:12:36;;;;;;;;;7.20;7.00;;;;;9.24;51.48;96179.13;6225407;28;96260;-64
2023/01/17 07:15:39;;;;;;;;;9.80;9.00;;;;;9.27;51.24;96169.72;6224254;28;96742;-62
2023/01/17 07:18:43;;;;;;;;;8.60;8.00;;;;;9.30;51.32;96169.16;6236919;28;96246;-63
2023/01/17 07:21:46;;;;;;;;;7.00;6.00;;;;;9.35;51.18;96171.81;6244252;28;96432;-63
2023/01/17 07:24:57;;;;;;;;;9.40;8.80;;;;;9.42;51.26;96167.75;6244009;27;96515;-63
2023/01/17 07:28:00;;;;;;;;;10.80;10.00;;;;;9.48;51.39;96165.81;6209748;28;96900;-64
2023/01/17 07:31:06;;;;;;;;;9.00;9.00;;;;;9.53;51.62;96166.56;6243590;28;96965;-62
2023/01/17 07:34:10;;;;;;;;;17.00;16.00;;;;;9.53;51.90;96165.75;6256370;27;96766;-63
2023/01/17 07:37:13;;;;;;;;;22.20;21.00;;;;;9.42;51.92;96181.19;6239097;27;97423;-63
2023/01/17 07:40:21;;;;;;;;;26.75;24.50;;;;;9.39;52.10;96180.91;6246274;28;96299;-63
2023/01/17 07:43:24;;;;;;;;;18.60;17.60;;;;;9.36;52.39;96182.31;6247397;28;96298;-62
2023/01/17 07:46:28;;;;;;;;;14.00;13.00;;;;;9.33;52.37;96190.94;6247903;28;96853;-63
2023/01/17 07:49:32;;;;;;;;;11.50;11.00;;;;;9.36;52.40;96189.56;6246134;28;96171;-62
2023/01/17 07:52:35;;;;;;;;;12.50;11.50;;;;;9.38;52.46;96198.16;6246767;28;96283;-64
2023/01/17 07:55:40;;;;;;;;;14.60;13.60;;;;;9.37;52.60;96196.56;6246628;28;96415;-62
2023/01/17 07:58:43;;;;;;;;;11.40;11.00;;;;;9.35;52.71;96199.50;6246485;28;96188;-61
2023/01/17 08:01:46;;;;;;;;;14.00;14.00;;;;;9.29;52.93;96192.56;6245342;28;96276;-63
2023/01/17 08:04:50;;;;;;;;;15.00;13.00;;;;;9.34;52.91;96211.34;6245429;27;96775;-62
2023/01/17 08:07:53;;;;;;;;;15.80;15.40;;;;;9.34;52.84;96214.03;6237085;28;96551;-62
2023/01/17 08:10:58;;;;;;;;;12.00;12.00;;;;;9.38;52.71;96211.59;6245878;28;96350;-63
2023/01/17 08:14:02;;;;;;;;;13.00;11.40;;;;;9.41;52.35;96219.09;6245290;28;97476;-62
2023/01/17 08:17:06;;;;;;;;;13.00;11.75;;;;;9.34;51.41;96219.41;6244596;28;96199;-63
2023/01/17 08:20:10;;;;;;;;;12.25;12.00;;;;;9.30;51.54;96217.56;6243859;28;96205;-62
2023/01/17 08:23:14;;;;;;;;;14.00;13.00;;;;;9.21;51.62;96233.47;6242987;28;96420;-63
2023/01/17 08:26:21;;;;;;;;;15.00;14.00;;;;;9.17;51.78;96234.31;6244230;28;97058;-63
2023/01/17 08:29:24;;;;;;;;;11.80;11.40;;;;;9.18;51.85;96234.03;6243898;28;97128;-62
2023/01/17 08:32:28;;;;;;;;;10.00;10.00;;;;;9.26;51.38;96238.81;6248570;27;96505;-64
2023/01/17 08:35:31;;;;;;;;;12.00;11.00;;;;;9.27;51.00;96231.56;6223229;28;96722;-63
2023/01/17 08:38:38;;;;;;;;;13.20;11.00;;;;;9.47;50.20;96244.88;6243439;27;96926;-63
2023/01/17 08:41:42;;;;;;;;;18.40;17.20;;;;;9.53;49.92;96249.13;6244296;28;96222;-63
2023/01/17 08:44:46;;;;;;;;;13.80;13.20;;;;;9.59;49.83;96256.09;6244121;28;96246;-63
2023/01/17 08:47:50;;;;;;;;;17.40;17.40;;;;;9.71;49.81;96261.13;6250821;27;96481;-63
2023/01/17 08:50:54;;;;;;;;;14.25;14.00;;;;;9.78;49.87;96264.28;6243289;28;96227;-63
2023/01/17 08:53:57;;;;;;;;;19.80;18.00;;;;;9.83;49.73;96261.56;6225641;28;98737;-64
2023/01/17 08:57:03;;;;;;;;;14.60;13.60;;;;;9.92;49.59;96265.28;6240387;28;96639;-63
2023/01/17 09:00:08;;;;;;;;;21.00;19.40;;;;;10.01;49.55;96266.28;6229831;28;96607;-63
2023/01/17 09:03:12;;;;;;;;;22.00;21.00;;;;;10.08;49.13;96277.50;6237095;28;96873;-63
2023/01/17 09:06:16;;;;;;;;;21.20;20.00;;;;;10.15;49.05;96271.81;6234779;28;96350;-63
2023/01/17 09:09:20;;;;;;;;;20.00;19.40;;;;;10.25;48.94;96271.75;6240659;28;96517;-63
2023/01/17 09:12:25;;;;;;;;;20.50;19.50;;;;;10.32;48.48;96270.34;6238724;28;96460;-63
2023/01/17 09:15:28;;;;;;;;;22.00;18.00;;;;;10.54;48.51;96279.84;6246497;27;96702;-63
2023/01/17 09:18:33;;;;;;;;;21.00;20.00;;;;;10.75;48.10;96268.53;6217720;28;96922;-63
2023/01/17 09:21:36;;;;;;;;;21.00;19.00;;;;;10.95;47.86;96272.09;6241001;28;96853;-64
2023/01/17 09:24:41;;;;;;;;;20.00;19.00;;;;;11.08;47.93;96280.31;6235519;28;96331;-63
2023/01/17 09:27:46;;;;;;;;;17.20;16.00;;;;;11.24;47.41;96283.59;6241977;28;97157;-64
2023/01/17 09:30:50;;;;;;;;;19.40;18.40;;;;;11.33;47.58;96273.00;6243507;28;96819;-64
2023/01/17 09:33:55;;;;;;;;;13.00;12.40;;;;;11.59;45.76;96269.66;6245670;28;96224;-63
2023/01/17 09:36:58;;;;;;;;;14.00;14.00;;;;;12.04;45.05;96302.50;6244584;28;96310;-63
2023/01/17 09:40:02;;;;;;;;;13.60;12.60;;;;;12.21;44.54;96296.56;6236120;28;96231;-65
2023/01/17 09:43:22;;;;;;;;;14.00;13.00;;;;;12.27;43.75;96296.19;6242975;28;96276;-65
2023/01/17 09:46:29;;;;;;;;;14.00;13.00;;;;;12.21;43.41;96281.16;6239123;28;96269;-64
2023/01/17 09:49:38;;;;;;;;;15.00;15.00;;;;;12.38;43.99;96283.31;6231397;28;96672;-65
2023/01/17 09:52:42;;;;;;;;;14.20;13.80;;;;;12.44;43.61;96282.13;6242790;28;96872;-63
2023/01/17 09:55:54;;;;;;;;;14.60;13.60;;;;;12.63;43.58;96280.16;6233611;28;96347;-63
2023/01/17 09:59:17;;;;;;;;;13.20;12.00;;;;;12.76;43.18;96286.69;6234811;28;96410;-64
2023/01/17 10:02:49;;;;;;;;;13.75;13.75;;;;;12.90;43.74;96287.53;6246470;27;96844;-64
2023/01/17 10:06:06;;;;;;;;;16.00;15.00;;;;;12.90;43.75;96291.00;6227956;28;96885;-63
2023/01/17 10:09:40;;;;;;;;;20.00;17.00;;;;;13.03;44.12;96274.00;6241436;28;96300;-63
2023/01/17 10:12:53;;;;;;;;;14.00;13.75;;;;;13.34;43.53;96276.13;6234820;27;96297;-63
2023/01/17 10:16:16;;;;;;;;;13.60;13.00;;;;;14.71;42.09;96270.97;6234668;28;96270;-63
2023/01/17 10:19:45;;;;;;;;;12.00;11.25;;;;;17.47;36.98;96279.94;6233134;28;96299;-65
2023/01/17 10:23:07;;;;;;;;;12.00;10.40;;;;;20.77;31.00;96286.41;6241821;27;96670;-64
2023/01/17 10:26:15;;;;;;;;;10.00;7.40;;;;;23.01;25.92;96274.72;6242672;28;96648;-65
2023/01/17 10:29:20;;;;;;;;;8.20;7.20;;;;;24.82;25.35;96275.44;6244774;28;96452;-64
2023/01/17 10:32:31;;;;;;;;;8.00;8.00;;;;;26.55;23.78;96275.22;6243896;28;96342;-64
2023/01/17 10:35:39;;;;;;;;;8.00;8.00;;;;;27.58;20.81;96282.63;6242847;27;96348;-64
2023/01/17 10:38:47;;;;;;;;;9.00;7.00;;;;;27.97;19.65;96277.06;6225163;28;96218;-65
2023/01/17 10:41:55;;;;;;;;;6.50;6.50;;;;;28.66;18.54;96281.25;6246056;27;96321;-66
2023/01/17 10:45:05;;;;;;;;;8.00;6.60;;;;;29.35;19.05;96289.66;6244015;28;96184;-66
2023/01/17 10:48:16;;;;;;;;;7.60;7.60;;;;;29.75;17.62;96290.13;6241620;28;96511;-65
2023/01/17 10:51:41;;;;;;;;;8.00;7.00;;;;;30.40;17.78;96300.22;6246392;28;96075;-64
2023/01/17 10:54:57;;;;;;;;;6.00;6.00;;;;;30.88;16.74;96298.13;6229444;28;96680;-64
2023/01/17 10:58:01;;;;;;;;;5.20;5.20;;;;;31.40;16.49;96303.38;6233024;28;96339;-65
2023/01/17 11:01:16;;;;;;;;;6.00;6.00;;;;;31.38;15.74;96305.78;6247083;28;96952;-65
2023/01/17 11:04:26;;;;;;;;;6.00;5.40;;;;;31.41;16.01;96304.97;6244845;27;96297;-64
2023/01/17 11:07:29;;;;;;;;;7.00;6.25;;;;;30.68;15.17;96313.06;6230746;28;96645;-64
2023/01/17 11:10:39;;;;;;;;;7.00;6.00;;;;;30.31;15.44;96305.50;6244655;28;96504;-67
2023/01/17 11:13:46;;;;;;;;;10.00;9.00;;;;;30.33;16.13;96308.66;6259224;27;96378;-67
2023/01/17 11:17:01;;;;;;;;;8.00;7.00;;;;;30.67;15.85;96305.94;6237312;28;96260;-68
2023/01/17 11:20:19;;;;;;;;;9.00;9.00;;;;;31.23;16.04;96301.63;6228577;28;96656;-68
2023/01/17 11:23:31;;;;;;;;;11.00;9.75;;;;;31.54;15.53;96305.16;6243785;27;96626;-68
2023/01/17 11:26:36;;;;;;;;;9.00;9.00;;;;;31.91;15.38;96304.22;6243296;28;96123;-68
2023/01/17 11:29:40;;;;;;;;;6.00;6.00;;;;;31.83;14.79;96297.97;6243576;28;96881;-68
2023/01/17 11:32:51;;;;;;;;;6.00;6.00;;;;;31.82;14.52;96301.94;6241828;27;98119;-69
2023/01/17 11:35:56;;;;;;;;;8.00;7.00;;;;;31.85;14.56;96295.56;6230870;27;96291;-68
2023/01/17 11:39:02;;;;;;;;;6.00;6.00;;;;;31.62;14.78;96293.53;6239636;28;96303;-68
2023/01/17 11:42:26;;;;;;;;;8.00;7.00;;;;;31.65;14.62;96291.91;6233957;28;96329;-68
2023/01/17 11:45:32;;;;;;;;;6.00;5.00;;;;;31.74;14.61;96292.94;6234909;28;96298;-67
2023/01/17 11:48:38;;;;;;;;;5.00;5.00;;;;;31.93;14.62;96285.84;6239325;28;96570;-68
2023/01/17 11:51:43;;;;;;;;;6.00;6.00;;;;;32.17;14.77;96289.44;6220436;28;97103;-68
2023/01/17 11:54:48;;;;;;;;;6.20;6.00;;;;;32.21;13.96;96285.38;6242568;28;96377;-67
2023/01/17 11:57:51;;;;;;;;;6.00;5.00;;;;;32.20;13.77;96283.03;6248272;27;96396;-67
2023/01/17 12:01:10;;;;;;;;;7.00;6.60;;;;;32.32;13.94;96285.19;6242487;27;96875;-68
2023/01/17 12:04:24;;;;;;;;;5.60;5.00;;;;;32.30;14.06;96278.47;6239748;27;97624;-68
2023/01/17 12:07:37;;;;;;;;;7.50;7.00;;;;;32.30;14.31;96279.25;6239060;27;96360;-67
2023/01/17 12:10:52;;;;;;;;;8.00;7.00;;;;;32.22;14.03;96256.28;6240810;27;96487;-68
2023/01/17 12:14:08;;;;;;;;;8.00;7.00;;;;;31.99;14.26;96256.28;6241813;28;96523;-66
2023/01/17 12:17:24;;;;;;;;;8.00;8.00;;;;;31.96;14.42;96254.34;6223811;28;96294;-68
2023/01/17 12:20:36;;;;;;;;;7.00;7.00;;;;;31.92;14.04;96261.97;6242249;27;96385;-66
2023/01/17 12:23:58;;;;;;;;;7.40;7.00;;;;;31.73;14.25;96257.94;6246935;27;96181;-67
2023/01/17 12:27:12;;;;;;;;;6.60;6.00;;;;;31.58;14.42;96258.59;6234099;27;96653;-67
2023/01/17 12:30:30;;;;;;;;;8.00;7.00;;;;;31.33;14.51;96262.50;6236008;28;96455;-67
2023/01/17 12:33:44;;;;;;;;;6.20;5.80;;;;;31.06;14.31;96278.44;6236486;27;96258;-68
2023/01/17 12:36:52;;;;;;;;;7.00;7.00;;;;;30.47;15.02;96273.19;6239411;27;96249;-67
2023/01/17 12:40:06;;;;;;;;;7.60;7.00;;;;;29.10;15.39;96272.34;6238019;27;96511;-68
2023/01/17 12:43:19;;;;;;;;;7.60;7.40;;;;;27.62;16.86;96274.31;6212317;28;96665;-68
2023/01/17 12:46:30;;;;;;;;;7.40;7.40;;;;;27.14;17.80;96266.34;6212722;28;96629;-67
2023/01/17 12:49:42;;;;;;;;;7.80;7.80;;;;;26.42;17.92;96260.19;6218062;28;96569;-67
2023/01/17 12:52:52;;;;;;;;;8.00;7.00;;;;;25.71;18.43;96263.28;6241313;27;96577;-69
2023/01/17 12:56:03;;;;;;;;;9.75;8.75;;;;;24.46;19.43;96263.22;6242603;27;97379;-67
2023/01/17 12:59:16;;;;;;;;;8.20;8.20;;;;;23.07;20.51;96273.25;6240617;28;98374;-67
2023/01/17 13:02:30;;;;;;;;;7.80;7.80;;;;;21.98;21.92;96266.34;6206782;27;97475;-67
2023/01/17 13:05:37;;;;;;;;;11.25;11.00;;;;;20.90;22.92;96274.25;6239031;28;96421;-66
2023/01/17 13:08:46;;;;;;;;;10.00;9.00;;;;;19.96;24.29;96271.16;6240551;28;96961;-66
2023/01/17 13:11:57;;;;;;;;;9.40;8.00;;;;;19.11;25.61;96271.97;6239460;28;96296;-65
2023/01/17 13:15:05;;;;;;;;;7.00;6.60;;;;;18.98;25.99;96281.28;6225698;28;96786;-66
2023/01/17 13:18:14;;;;;;;;;9.00;9.00;;;;;18.98;26.32;96287.56;6241708;27;96259;-65
2023/01/17 13:21:29;;;;;;;;;9.50;7.50;;;;;18.83;26.39;96293.66;6241008;28;96225;-63
2023/01/17 13:24:44;;;;;;;;;9.00;8.00;;;;;18.98;26.26;96294.94;6256574;27;96921;-64
2023/01/17 13:28:02;;;;;;;;;9.00;8.00;;;;;19.03;26.25;96295.53;6230697;28;96830;-66
2023/01/17 13:31:26;;;;;;;;;8.00;8.00;;;;;19.10;25.86;96310.56;6236353;28;96924;-68
2023/01/17 13:34:43;;;;;;;;;7.00;7.00;;;;;19.26;26.10;96311.47;6233702;27;97668;-64
2023/01/17 13:38:07;;;;;;;;;7.40;7.00;;;;;19.31;25.79;96312.06;6233020;28;96202;-64
2023/01/17 13:41:27;;;;;;;;;7.00;7.00;;;;;19.22;25.95;96313.28;6224413;28;96477;-64
2023/01/17 13:44:32;;;;;;;;;8.00;6.00;;;;;19.15;26.09;96318.53;6237250;27;96293;-64
2023/01/17 13:47:40;;;;;;;;;8.40;8.00;;;;;19.18;26.26;96317.84;6249090;27;96399;-64
2023/01/17 13:50:50;;;;;;;;;7.00;6.00;;;;;19.27;26.20;96326.72;6239629;28;96435;-64
2023/01/17 13:53:53;;;;;;;;;4.00;4.00;;;;;19.27;26.05;96329.47;6221756;28;96514;-65
2023/01/17 13:57:31;;;;;;;;;6.00;6.00;;;;;19.23;25.97;96344.94;6255813;27;96705;-66
2023/01/17 14:00:50;;;;;;;;;5.75;5.00;;;;;19.24;26.03;96355.53;6240571;28;96880;-66
2023/01/17 14:04:06;;;;;;;;;4.00;4.00;;;;;19.02;26.05;96348.53;6234863;27;96399;-63
2023/01/17 14:07:24;;;;;;;;;3.00;3.00;;;;;18.37;26.57;96349.28;6255667;27;96546;-64
2023/01/17 14:10:33;;;;;;;;;6.00;5.00;;;;;17.77;27.57;96363.31;6234816;27;96274;-65
2023/01/17 14:13:38;;;;;;;;;6.00;6.00;;;;;17.30;28.48;96368.75;6245046;27;96335;-63
2023/01/17 14:16:43;;;;;;;;;4.60;4.60;;;;;16.85;28.61;96367.63;6237640;28;96619;-62
2023/01/17 14:19:50;;;;;;;;;6.00;6.00;;;;;16.46;28.79;96371.31;6243725;28;96450;-63
2023/01/17 14:22:57;;;;;;;;;5.00;5.00;;;;;16.25;28.72;96362.97;6243909;28;96264;-62
2023/01/17 14:26:18;;;;;;;;;8.25;6.25;;;;;16.12;29.01;96371.28;6236880;27;96429;-63
2023/01/17 14:29:51;;;;;;;;;4.00;3.00;;;;;15.88;29.34;96377.16;6242550;28;96334;-61
2023/01/17 14:33:16;;;;;;;;;4.00;4.00;;;;;15.81;29.18;96379.53;6207018;27;96832;-62
2023/01/17 14:36:30;;;;;;;;;5.00;4.00;;;;;15.74;29.45;96388.13;6238529;27;96376;-62
2023/01/17 14:39:44;;;;;;;;;5.80;4.80;;;;;15.37;30.07;96399.47;6241660;28;96231;-62
2023/01/17 14:42:59;;;;;;;;;5.00;5.00;;;;;15.03;30.75;96405.50;6244181;27;96814;-63
2023/01/17 14:46:05;;;;;;;;;2.00;2.00;;;;;14.74;30.93;96403.25;6243578;28;96335;-64
2023/01/17 14:49:24;;;;;;;;;5.00;5.00;;;;;14.42;31.32;96414.31;6229560;28;96927;-63
2023/01/17 14:52:28;;;;;;;;;4.75;4.00;;;;;14.08;31.86;96420.97;6225741;28;96867;-62
2023/01/17 14:55:31;;;;;;;;;5.40;4.40;;;;;13.81;32.58;96424.53;6243495;28;97444;-62
2023/01/17 14:58:36;;;;;;;;;3.00;3.00;;;;;13.58;33.09;96422.84;6242516;28;96727;-62
2023/01/17 15:01:40;;;;;;;;;5.00;5.00;;;;;13.40;33.55;96434.53;6229991;27;96872;-64
2023/01/17 15:04:54;;;;;;;;;6.00;4.20;;;;;13.20;33.70;96438.41;6201051;28;97047;-62
2023/01/17 15:07:58;;;;;;;;;5.00;5.00;;;;;12.97;34.74;96448.25;6237550;27;96455;-66
2023/01/17 15:11:05;;;;;;;;;6.75;6.75;;;;;12.83;35.04;96446.59;6238721;27;96425;-61
2023/01/17 15:14:13;;;;;;;;;7.60;7.60;;;;;12.67;35.63;96446.03;6241494;28;97488;-64
2023/01/17 15:17:18;;;;;;;;;7.00;7.00;;;;;12.50;36.34;96452.00;6238876;28;97102;-64
2023/01/17 15:20:24;;;;;;;;;6.40;6.00;;;;;12.37;36.83;96451.91;6235892;28;96742;-63
2023/01/17 15:23:33;;;;;;;;;9.00;8.60;;;;;12.17;36.75;96447.56;6237080;28;96701;-63
2023/01/17 15:26:41;;;;;;;;;9.00;9.00;;;;;11.92;37.89;96451.44;6237372;28;96610;-65
2023/01/17 15:29:46;;;;;;;;;9.40;8.00;;;;;11.83;37.86;96460.44;6226569;28;96734;-62
2023/01/17 15:32:50;;;;;;;;;8.00;7.00;;;;;11.73;38.25;96464.06;6240781;28;96467;-63
2023/01/17 15:36:01;;;;;;;;;9.00;8.40;;;;;11.66;38.96;96460.88;6235119;27;96307;-63
2023/01/17 15:39:14;;;;;;;;;12.00;11.00;;;;;11.65;38.39;96459.28;6222798;28;96293;-63
2023/01/17 15:42:23;;;;;;;;;10.20;9.00;;;;;11.61;38.36;96458.25;6238439;28;96468;-62
2023/01/17 15:45:29;;;;;;;;;12.67;12.67;;;;;11.55;38.80;96462.09;6240313;28;96473;-62
2023/01/17 15:48:39;;;;;;;;;13.00;12.00;;;;;11.44;38.66;96449.78;6240753;28;97579;-62
2023/01/17 15:51:50;;;;;;;;;11.50;10.00;;;;;11.46;39.27;96455.72;6231961;27;96791;-63
2023/01/17 15:54:57;;;;;;;;;10.60;9.60;;;;;11.38;39.08;96440.97;6240999;27;96816;-63
2023/01/17 15:58:01;;;;;;;;;13.00;12.60;;;;;11.34;39.29;96442.59;6247104;27;97004;-64
2023/01/17 16:01:16;;;;;;;;;10.20;10.20;;;;;11.25;39.55;96426.25;6235889;27;96805;-63
2023/01/17 16:04:32;;;;;;;;;12.00;12.00;;;;;11.12;39.81;96423.44;6236419;28;96718;-63
2023/01/17 16:07:36;;;;;;;;;15.80;14.20;;;;;11.00;40.18;96417.59;6236275;27;97795;-65
2023/01/17 16:10:40;;;;;;;;;11.00;10.00;;;;;10.97;39.84;96410.91;6219390;27;96559;-61